Peoa, UT (84061)

5:47 AM MDT on August 28, 2016 (GMT -0600)
Weber Canyon Road | | Change Station

Elev 6475 ft 40.72 °N, 111.29 °W | Updated 13 seconds ago

Clear
Clear
48.0 °F
Feels Like 48 °F
N
0.0
Wind Variable Wind from ESE
Gusts 3.0 mph

Today
High -- | Low -- °F
--% Chance of Precip.
Yesterday
High -- | Low -- °F
Precip. -- in
Pressure 30.21 in
Visibility 10.0 miles
Clouds Clear
Windchill 48 °F
Dew Point 32 °F
Humidity 53%
Rainfall 0.00 in
Snow Depth Not available.
6:49 AM 8:02 PM
Waning Crescent, 16% visible
METAR K36U 281135Z AUTO 00000KT 10SM CLR 05/01 A3021 RMK AO2
Pressure 30.21 in
Visibility 10.0 miles
Clouds Clear
Windchill 48 °F
Dew Point 32 °F
Humidity 53%
Rainfall 0.00 in
Snow Depth Not available.
6:49 AM 8:02 PM
Waning Crescent, 16% visible
METAR K36U 281135Z AUTO 00000KT 10SM CLR 05/01 A3021 RMK AO2

10-Day Weather Forecast

Almanac

Astronomy

Aug. 28, 2016 Rise Set
Actual Time
Civil Twilight
Nautical Twilight
Astronomical Twilight
Moon
Length of Visible Light
Length of Day
Tomorrow will be .
, % of the Moon is Illuminated

Today's Extremes

State Highs State Lows

Community

WunderPhotos

Upload Photos

1,935,549 photos uploaded!

WunderBlog® & News

Nearby

Air Quality

  Air Quality AQ Index Pollutant
Not available.

Snow Depth

Station Depth Elevation

Earthquake Activity

City Distance Mag. Time & Date
Minimum magnitude displayed is 2.5.

Coastal Water Temperatures

Place Temperature

Stations

Nearby Weather Stations

Station Location Temp. Windchill Dew Point Humidity Wind Precip. Elev Updated Type
                   

Watches & Warnings

There are currently no watches in effect.